Latest Weather Observations for Carnarvon

IDW60801

Issued at 11:33 pm WST Saturday 29 April 2017 (issued every 30 minutes, with the page automatically refreshed every 10 minutes)

About weather observations | Map of weather stations | Latest weather observations for WA | Other Formats
Station Details ID: 006011 Name: CARNARVON AIRPORT Lat: -24.89 Lon: 113.67 Height: 4.0 m
Data from the previous 72 hours. | See also: Recent months at Carnarvon
Date/Time
WST
Temp
°C
App
Temp
°C
Dew
Point
°C
Rel
Hum
%
Delta-T
°C
Wind Press
QNH
hPa
Press
MSL
hPa
Rain since
9am
mm
Dir  Spd
km/h
Gust
km/h
Spd
kts
Gust
kts
29/11:30pm 21.4 19.4 15.0 67 3.8 S 19 24 10 13 1016.9 - 0.0
29/11:00pm 20.9 19.9 15.5 71 3.2 S 15 19 8 10 1016.9 - 0.0
29/10:30pm 21.2 19.8 15.5 70 3.4 S 17 20 9 11 1017.2 - 0.0
29/10:00pm 21.6 20.2 15.6 68 3.6 S 17 24 9 13 1017.2 - 0.0
29/09:30pm 22.0 20.2 15.5 66 3.9 S 19 24 10 13 1017.1 - 0.0
29/09:00pm 22.4 20.5 16.7 70 3.5 S 22 28 12 15 1017.0 1017.0 0.0
29/08:30pm 22.7 21.0 17.3 71 3.3 S 22 28 12 15 1016.8 - 0.0
29/08:00pm 22.9 21.1 17.9 73 3.1 S 24 30 13 16 1016.5 - 0.0
29/07:30pm 23.4 21.7 18.1 72 3.3 S 24 30 13 16 1016.2 - 0.0
29/07:00pm 23.3 22.5 18.0 72 3.3 S 19 22 10 12 1015.9 - 0.0
29/06:30pm 23.3 23.1 18.5 74 3.0 SSW 17 20 9 11 1015.6 - 0.0
29/06:00pm 23.7 23.0 18.3 71 3.4 SSW 19 22 10 12 1015.4 1015.4 0.0
29/05:30pm 24.4 23.3 17.7 66 4.2 SSW 20 26 11 14 1015.2 - 0.0
29/05:00pm 25.1 23.6 17.8 64 4.6 SSW 22 30 12 16 1015.2 - 0.0
29/04:30pm 25.3 23.4 17.6 62 4.8 SSW 24 32 13 17 1015.2 - 0.0
29/04:00pm 25.6 23.6 17.4 60 5.1 SSW 24 30 13 16 1015.2 - 0.0
29/03:30pm 25.3 23.5 17.8 63 4.7 SSW 24 32 13 17 1015.3 - 0.0
29/03:00pm 25.6 23.5 17.1 59 5.3 SSW 24 32 13 17 1015.2 1015.2 0.0
29/02:30pm 25.6 23.0 16.9 58 5.4 SSW 26 33 14 18 1015.2 - 0.0
29/02:00pm 26.0 23.2 16.4 55 5.9 SSW 26 32 14 17 1015.3 - 0.0
29/01:30pm 25.4 22.7 16.6 58 5.4 SSW 26 32 14 17 1015.7 - 0.0
29/01:00pm 25.5 22.9 15.8 55 5.9 SSW 24 32 13 17 1016.0 - 0.0
29/12:30pm 25.6 22.9 14.5 50 6.6 SSW 22 28 12 15 1016.5 - 0.0
29/12:00pm 25.5 22.6 12.9 45 7.3 SSW 20 26 11 14 1017.0 1017.0 0.0
29/11:30am 24.6 21.7 12.8 47 6.8 SSW 20 24 11 13 1017.4 - 0.0
29/11:00am 24.8 21.7 11.7 44 7.4 SSW 19 24 10 13 1017.5 - 0.0
29/10:30am 27.2 23.9 4.5 23 11.5 SE 11 17 6 9 1017.7 - 0.0
29/10:00am 25.9 22.2 4.3 25 10.8 SE 13 19 7 10 1017.8 - 0.0
29/09:30am 24.3 20.1 4.0 26 10.0 SE 15 20 8 11 1017.9 - 0.0
29/09:00am 22.2 17.5 3.1 28 9.1 SE 17 20 9 11 1017.9 1017.9 -
29/08:30am 20.5 15.5 3.4 32 8.1 SE 19 24 10 13 1017.9 - -
29/08:00am 19.0 14.3 3.1 34 7.4 SE 17 22 9 12 1017.7 - -
29/07:30am 16.5 12.8 4.3 44 5.7 SSE 13 15 7 8 1017.6 - -
29/07:00am 14.9 11.7 5.1 52 4.6 SE 11 15 6 8 1017.4 - -
29/06:30am 15.2 11.7 5.5 52 4.6 SE 13 15 7 8 1017.2 - -
29/06:00am 15.6 12.3 6.3 54 4.5 SE 13 17 7 9 1017.2 1017.2 -
29/05:30am 15.9 13.2 7.2 56 4.3 SSE 11 13 6 7 1017.0 - -
29/05:00am 16.6 13.6 7.9 56 4.4 SSE 13 15 7 8 1017.0 - -
29/04:30am 17.3 13.8 8.7 57 4.4 SSE 17 19 9 10 1017.0 - -
29/04:00am 18.2 15.1 10.3 60 4.2 SSE 17 22 9 12 1017.0 - -
29/03:30am 18.7 16.0 12.8 68 3.3 SSE 19 22 10 12 1017.0 - -
29/03:00am 19.0 16.6 13.9 72 2.9 SSE 19 22 10 12 1017.1 1017.1 -
29/02:30am 18.8 17.1 14.7 77 2.4 SSE 17 19 9 10 1017.4 - -
29/02:00am 18.7 17.4 14.9 78 2.2 SSE 15 19 8 10 1017.7 - -
29/01:30am 19.0 17.9 15.2 78 2.2 SE 15 19 8 10 1017.8 - -
29/01:00am 19.1 17.8 14.8 76 2.5 SSE 15 17 8 9 1017.9 - -
29/12:30am 18.9 17.8 14.4 75 2.6 SSE 13 15 7 8 1018.0 - -
29/12:00am 19.1 18.1 14.6 75 2.6 SSE 13 17 7 9 1018.1 1018.1 -
 
Date/Time
WST
Temp
°C
App
Temp
°C
Dew
Point
°C
Rel
Hum
%
Delta-T
°C
Wind Press
QNH
hPa
Press
MSL
hPa
Rain since
9am
mm
Dir  Spd
km/h
Gust
km/h
Spd
kts
Gust
kts
28/11:30pm 19.8 18.6 15.0 74 2.8 SSE 15 19 8 10 1018.2 - -
28/11:00pm 20.4 18.8 14.9 70 3.2 SSE 17 20 9 11 1018.5 - -
28/10:30pm 20.8 18.7 14.8 68 3.5 SSE 19 24 10 13 1018.6 - -
28/10:00pm 20.8 19.1 14.6 67 3.6 S 17 20 9 11 1018.7 - -
28/09:30pm 21.0 19.2 14.5 66 3.8 S 17 20 9 11 1018.7 - -
28/09:00pm 21.1 18.9 14.4 65 3.9 S 19 22 10 12 1018.9 1018.9 -
28/08:30pm 21.6 19.6 15.4 68 3.7 S 20 26 11 14 1018.8 - -
28/08:00pm 21.2 21.1 16.9 76 2.6 S 13 17 7 9 1018.7 - -
28/07:30pm 22.0 21.8 16.7 72 3.2 S 13 17 7 9 1018.6 - -
28/07:00pm 21.6 21.2 16.1 71 3.3 SSW 13 15 7 8 1018.4 - -
28/06:30pm 22.2 21.6 15.7 66 3.9 S 13 17 7 9 1018.0 - -
28/06:00pm 23.1 22.0 15.2 61 4.7 S 15 17 8 9 1017.7 1017.7 -
28/05:30pm 24.3 21.3 13.7 51 6.2 S 22 30 12 16 1017.5 - -
28/05:00pm 25.1 21.4 12.6 45 7.2 S 24 32 13 17 1017.4 - -
28/04:30pm 26.2 21.2 10.9 38 8.6 S 28 35 15 19 1017.5 - -
28/04:00pm 26.2 20.8 12.1 41 8.1 S 32 41 17 22 1017.5 - -
28/03:30pm 26.9 22.0 11.2 37 8.9 S 28 35 15 19 1017.6 - -
28/03:00pm 27.3 22.0 9.8 33 9.7 S 28 37 15 20 1017.6 1017.6 -
28/02:30pm 27.5 21.8 11.1 36 9.3 S 32 39 17 21 1017.6 - -
28/02:00pm - - - - - S 32 39 17 21 - - 0.0
28/01:30pm 26.3 22.7 15.2 50 6.7 S 28 35 15 19 1017.9 - 0.0
28/01:00pm 26.6 23.1 15.4 50 6.8 SSW 28 35 15 19 1018.3 - 0.0
28/12:30pm 25.7 21.4 14.4 49 6.7 S 30 39 16 21 1018.7 - 0.0
28/12:00pm 26.3 23.1 14.2 47 7.2 SSW 24 28 13 15 1019.1 1019.1 0.0
28/11:30am 26.4 23.4 12.6 42 8.0 SSW 20 28 11 15 1019.5 - 0.0
28/11:00am 28.7 23.8 5.0 22 12.2 SE 20 26 11 14 1019.7 - 0.0
28/10:30am 28.2 23.5 5.3 23 11.8 ESE 19 24 10 13 1020.0 - 0.0
28/10:00am 26.3 21.4 5.0 25 10.8 ESE 20 28 11 15 1020.1 - 0.0
28/09:30am 25.4 20.1 5.0 27 10.3 ESE 22 28 12 15 1020.2 - 0.0
28/09:00am 24.3 18.7 5.2 29 9.6 ESE 24 32 13 17 1020.3 1020.3 0.0
28/08:30am 22.8 17.1 5.1 31 8.8 ESE 24 32 13 17 1020.1 - 0.0
28/08:00am 21.3 16.4 5.0 34 8.0 ESE 20 28 11 15 1020.0 - 0.0
28/07:30am 19.2 15.0 5.5 40 6.7 ESE 17 19 9 10 1019.8 - 0.0
28/07:00am 16.8 13.0 5.8 48 5.3 SE 15 19 8 10 1019.5 - 0.0
28/06:30am 16.3 12.8 7.0 54 4.6 SE 15 19 8 10 1019.4 - 0.0
28/06:00am 17.3 13.9 6.0 47 5.5 SE 13 17 7 9 1019.2 1019.2 0.0
28/05:30am 17.2 13.1 6.1 48 5.4 SE 17 19 9 10 1019.0 - 0.0
28/05:00am 16.6 13.2 7.8 56 4.4 SE 15 17 8 9 1019.0 - 0.0
28/04:30am 16.5 13.4 8.7 60 4.0 SE 15 17 8 9 1018.8 - 0.0
28/04:00am 17.0 14.1 9.5 61 3.9 SE 15 15 8 8 1018.7 - 0.0
28/03:30am 17.4 14.6 10.0 62 3.9 SSE 15 17 8 9 1018.7 - 0.0
28/03:00am 18.0 15.9 9.6 58 4.4 SE 11 13 6 7 1018.6 1018.6 0.0
28/02:30am 18.8 16.2 9.3 54 5.0 SE 13 15 7 8 1018.5 - 0.0
28/02:00am 19.2 16.9 10.5 57 4.7 ESE 13 15 7 8 1018.6 - 0.0
28/01:30am 19.6 17.3 11.6 60 4.4 SE 15 17 8 9 1018.6 - 0.0
28/01:00am 19.5 18.0 14.1 71 3.1 SE 15 17 8 9 1018.6 - 0.0
28/12:30am 19.5 18.5 14.7 74 2.8 SSE 13 17 7 9 1018.5 - 0.0
28/12:00am 19.8 19.0 15.2 75 2.7 SSE 13 13 7 7 1018.7 1018.7 0.0
 
Date/Time
WST
Temp
°C
App
Temp
°C
Dew
Point
°C
Rel
Hum
%
Delta-T
°C
Wind Press
QNH
hPa
Press
MSL
hPa
Rain since
9am
mm
Dir  Spd
km/h
Gust
km/h
Spd
kts
Gust
kts
27/11:30pm 20.3 20.1 15.6 74 2.8 SSE 11 13 6 7 1019.0 - 0.0
27/11:00pm 21.2 20.3 15.8 71 3.2 SSE 15 17 8 9 1019.1 - 0.0
27/10:30pm 20.9 20.8 14.9 68 3.5 SE 9 13 5 7 1019.3 - 0.0
27/10:00pm 22.2 21.8 15.3 65 4.1 SE 11 15 6 8 1019.3 - 0.0
27/09:30pm 23.1 22.0 15.4 62 4.6 E 15 20 8 11 1019.3 - 0.0
27/09:00pm 23.1 21.8 15.8 63 4.4 S 17 24 9 13 1018.9 1018.9 0.0
27/08:30pm 23.3 22.1 16.0 63 4.4 S 17 20 9 11 1018.5 - 0.0
27/08:00pm 23.4 22.5 15.8 62 4.6 S 15 19 8 10 1018.3 - 0.0
27/07:30pm 23.5 22.5 15.7 61 4.7 S 15 20 8 11 1018.0 - 0.0
27/07:00pm 23.9 22.3 15.0 57 5.3 S 17 20 9 11 1017.7 - 0.0
27/06:30pm 24.1 23.3 17.1 65 4.3 S 17 20 9 11 1017.4 - 0.0
27/06:00pm 24.8 23.2 16.5 60 5.1 S 20 28 11 15 1017.1 1017.1 0.0
27/05:30pm 26.0 22.9 14.4 48 6.9 S 24 30 13 16 1016.8 - 0.0
27/05:00pm 26.7 22.8 14.3 46 7.4 S 28 33 15 18 1016.5 - 0.0
27/04:30pm 27.8 24.2 14.1 43 8.2 S 26 32 14 17 1016.6 - 0.0
27/04:00pm 28.0 24.2 13.7 41 8.5 S 26 32 14 17 1016.7 - 0.0
27/03:30pm 27.8 24.4 14.7 44 7.9 S 26 35 14 19 1016.5 - 0.0
27/03:00pm 27.4 24.0 14.8 46 7.6 SSW 26 35 14 19 1016.6 1016.6 0.0
27/02:30pm 27.6 24.0 15.3 47 7.5 SSW 28 35 15 19 1016.8 - 0.0
27/02:00pm 28.0 25.3 15.6 46 7.6 SSW 24 32 13 17 1016.8 - 0.0
27/01:30pm 27.5 24.0 15.5 48 7.3 SSW 28 33 15 18 1017.1 - 0.0
27/01:00pm 28.1 25.0 14.5 43 8.2 SSW 24 28 13 15 1017.5 - 0.0
27/12:30pm 30.4 26.5 9.6 27 11.7 SSW 20 30 11 16 1017.8 - 0.0
27/12:00pm 31.6 29.4 7.7 22 13.1 SE 9 17 5 9 1018.3 1018.3 0.0
27/11:30am 31.1 28.4 7.3 22 12.9 ESE 11 19 6 10 1018.7 - 0.0
27/11:00am 30.7 27.4 6.6 22 12.9 E 13 19 7 10 1019.1 - 0.0
27/10:30am 29.6 24.8 5.4 21 12.6 E 20 28 11 15 1019.4 - 0.0
27/10:00am 28.9 23.6 5.1 22 12.3 E 22 32 12 17 1019.7 - 0.0
27/09:30am 27.7 22.3 4.7 23 11.7 E 22 30 12 16 1019.8 - 0.0
27/09:00am 26.3 21.0 5.0 25 10.8 E 22 28 12 15 1019.9 1019.9 0.2
27/08:30am 24.6 19.3 4.8 27 9.9 E 22 28 12 15 1019.9 - 0.2
27/08:00am 23.0 18.0 4.5 30 9.1 E 20 26 11 14 1019.7 - 0.2
27/07:30am 21.1 17.4 4.7 34 8.0 ESE 13 17 7 9 1019.4 - 0.2
27/07:00am 18.5 14.8 4.7 40 6.6 ESE 13 15 7 8 1018.9 - 0.2
27/06:30am 17.2 13.7 5.6 46 5.6 ESE 13 15 7 8 1018.7 - 0.2
27/06:00am 17.2 13.8 6.1 48 5.4 SSE 13 13 7 7 1018.6 1018.6 0.2
27/05:30am 17.5 14.9 6.0 46 5.6 SE 9 11 5 6 1018.3 - 0.2
27/05:00am 18.0 15.1 6.7 47 5.6 SE 11 11 6 6 1018.1 - 0.2
27/04:30am 17.9 14.7 6.8 48 5.5 SE 13 13 7 7 1017.9 - 0.2
27/04:00am 19.0 15.4 6.8 45 6.1 SE 15 15 8 8 1017.9 - 0.2
27/03:30am 19.7 16.5 6.8 43 6.5 SE 13 15 7 8 1017.9 - 0.2
27/03:00am 21.0 17.7 6.3 38 7.4 SE 13 15 7 8 1018.0 1018.0 0.2
27/02:30am 22.3 18.5 6.0 34 8.2 SE 15 17 8 9 1018.0 - 0.2
27/02:00am 22.9 19.2 6.4 34 8.4 ESE 15 17 8 9 1018.1 - 0.2
27/01:30am 23.5 19.1 6.5 33 8.7 SE 19 22 10 12 1017.9 - 0.2
27/01:00am 23.7 20.1 8.2 37 8.2 ESE 17 20 9 11 1018.2 - 0.2
27/12:30am 23.6 20.6 9.1 39 7.8 ESE 15 19 8 10 1018.5 - 0.2
27/12:00am 23.9 20.6 9.5 40 7.8 ESE 17 20 9 11 1018.9 1018.9 0.2

Other Formats:

Comma delimited format used in spreadsheet applications
http://www.bom.gov.au/fwo/IDW60801/IDW60801.94300.axf

JavaScript Object Notation format (JSON) in row-major order
http://www.bom.gov.au/fwo/IDW60801/IDW60801.94300.json